Meteo Giornale » Osservazioni meteo Canada » Edmonton-Villeneuve
ore: 05:00 - Osservazioni Meteo Edmonton-Villeneuve
Lat. 53° 40' N Lon. 113° 52' W Alt. 686 metri s.l.m.
13 °C
Sereno
Temp. 24 Ore
11 °C
21 °C
Sud-Est
11.1 Km/h
Dew point 8 °C
Umidità 71 %
Visibilità 14 Km
Il sole sorge alle ore 06:45
Il sole tramonta alle ore 20:25
| Data e Ora | Cielo e Fenomeni | T °C | DP °C | Um. % | Pres. hPa | Vis. km | Vento km/h | |
|---|---|---|---|---|---|---|---|---|
| Oggi h: 05:00 | Sereno | 13 | 8 | 71 | 1009 | 14 | SE 11.1 | |
| Oggi h: 04:00 | Sereno | 11 | 7 | 76 | 1010 | 14 | S/SE 13 | |
| Oggi h: 03:00 | Sereno | 12 | 8 | 76 | 1010 | 14 | S 13 | |
| Oggi h: 02:00 | Poco Nuvoloso | 13 | 8 | 71 | 1010 | 14 | S/SE 11.1 | |
| Oggi h: 01:00 | Sereno | 14 | 9 | 71 | 1010 | 14 | S/SE 9.3 | |
| Oggi h: 00:00 | Sereno | 12 | 9 | 81 | 1010 | 14 | S/SE 9.3 | |
| Ieri h: 23:00 | Sereno | 12 | 9 | 81 | 1010 | 14 | N 5.5 | |
| Ieri h: 22:00 | Sereno | 14 | 9 | 71 | 1011 | 14 | N 5.5 | |
| Ieri h: 21:00 | Sereno | 15 | 11 | 76 | 1010 | 14 | N 3.7 | |
| Ieri h: 20:51 | Sereno | 15 | 11 | 76 | 1010 | 14 | N 3.7 | |
| Ieri h: 20:41 | Foschia | 15 | 11 | 76 | 1010 | 8 | N 3.7 | |
| Ieri h: 20:00 | Sereno | 19 | 11 | 59 | 1010 | 14 | N 0 | |
| Ieri h: 19:00 | Sereno | 21 | 9 | 46 | 1010 | 14 | N 5.5 | |
| Ieri h: 18:00 | Sereno | 21 | 7 | 40 | 1010 | 14 | O 9.3 | |
| Ieri h: 17:00 | Sereno | 21 | 8 | 43 | 1011 | 14 | O/SO 9.3 | |
| Ieri h: 16:00 | Poco Nuvoloso | 21 | 7 | 40 | 1011 | 14 | O 14.8 | |
| Ieri h: 15:00 | Poco Nuvoloso | 21 | 8 | 43 | 1011 | 14 | O/NO 18.5 | |
| Ieri h: 14:00 | Sereno | 20 | 9 | 49 | 1011 | 14 | O 14.8 | |
| Ieri h: 13:00 | Sereno | 20 | 8 | 45 | 1011 | 14 | O/NO 18.5 | |
| Ieri h: 12:00 | Sereno | 19 | 8 | 48 | 1011 | 14 | NO 24 | |
| Ieri h: 11:00 | Sereno | 18 | 9 | 55 | 1011 | 14 | NO 20.3 | |
| Ieri h: 10:00 | Sereno | 16 | 9 | 63 | 1011 | 14 | O/NO 20.3 | |
| Ieri h: 09:00 | Sereno | 14 | 9 | 71 | 1011 | 14 | O/NO 25.9 | |
| Ieri h: 08:00 | Sereno | 12 | 9 | 81 | 1011 | 14 | O 14.8 | |
| Ieri h: 07:00 | Sereno | 11 | 9 | 87 | 1011 | 14 | O 13 | |
| Ieri h: 06:00 | Sereno | 11 | 9 | 87 | 1011 | 14 | O 11.1 | |



